Time;durP1;ratioP1;P1;durP2;ratioP2;P2;SDS_P1;SDS_P2;PMS_P1;PMS_P2;Temp;Humidity;BMP_temperature;BMP_pressure;BME280_temperature;BME280_humidity;BME280_pressure;Samples;Min_cycle;Max_cycle;Signal;HPM_P1;HPM_P2
2021/04/27 00:00:26;;;;;;;2.98;1.20;;;;;;;7.63;44.58;97509.08;1685754;83;21148;-67
2021/04/27 00:02:55;;;;;;;2.83;1.45;;;;;;;7.60;44.70;97514.53;1685673;83;21153;-68
2021/04/27 00:05:24;;;;;;;2.05;1.20;;;;;;;7.60;42.66;97515.82;1685623;83;21570;-68
2021/04/27 00:07:52;;;;;;;3.02;1.60;;;;;;;7.62;43.30;97507.94;1685450;83;21189;-67
2021/04/27 00:10:21;;;;;;;4.65;1.67;;;;;;;7.62;43.13;97503.59;1685773;83;21699;-68
2021/04/27 00:12:49;;;;;;;2.05;1.20;;;;;;;7.61;43.38;97492.09;1685560;83;21212;-69
2021/04/27 00:15:22;;;;;;;3.65;1.32;;;;;;;7.58;43.39;97491.08;1685614;83;21153;-68
2021/04/27 00:17:51;;;;;;;2.27;1.30;;;;;;;7.54;43.34;97492.30;1685673;83;21161;-68
2021/04/27 00:20:21;;;;;;;3.72;1.27;;;;;;;7.49;42.98;97488.82;1685670;83;21157;-67
2021/04/27 00:22:53;;;;;;;3.98;1.40;;;;;;;7.49;42.91;97490.58;1685614;83;21142;-67
2021/04/27 00:25:22;;;;;;;1.52;1.32;;;;;;;7.46;41.99;97492.16;1685539;83;21149;-67
2021/04/27 00:27:51;;;;;;;1.30;1.00;;;;;;;7.44;40.93;97496.62;1685569;83;21149;-66
2021/04/27 00:30:42;;;;;;;1.67;0.98;;;;;;;7.43;43.42;97504.05;1685636;83;21161;-71
2021/04/27 00:33:10;;;;;;;1.90;1.10;;;;;;;7.43;44.11;97507.92;1662529;85;21239;-67
2021/04/27 00:35:38;;;;;;;1.47;1.10;;;;;;;7.41;41.95;97495.13;1623063;87;21180;-68
2021/04/27 00:38:07;;;;;;;3.20;1.40;;;;;;;7.39;44.94;97490.56;1623307;87;21610;-68
2021/04/27 00:40:35;;;;;;;1.95;1.15;;;;;;;7.37;44.31;97483.91;1623197;87;21191;-68
2021/04/27 00:43:03;;;;;;;2.95;1.30;;;;;;;7.33;44.38;97480.78;1623142;87;21175;-67
2021/04/27 00:45:31;;;;;;;2.60;1.47;;;;;;;7.29;44.87;97483.28;1623210;87;21686;-68
2021/04/27 00:48:00;;;;;;;2.40;1.40;;;;;;;7.25;44.62;97481.92;1623144;87;21172;-67
2021/04/27 00:50:34;;;;;;;2.05;1.30;;;;;;;7.20;44.98;97479.41;1623119;87;21184;-67
2021/04/27 00:53:04;;;;;;;2.17;1.10;;;;;;;7.14;44.29;97487.20;1622698;88;21785;-67
2021/04/27 00:55:33;;;;;;;3.15;0.88;;;;;;;7.09;44.24;97483.72;1623254;87;21552;-67
2021/04/27 00:58:02;;;;;;;2.70;1.32;;;;;;;7.03;47.83;97484.73;1623277;87;21172;-67
2021/04/27 01:00:54;;;;;;;3.35;1.60;;;;;;;6.98;45.80;97486.42;1623166;87;21153;-67
2021/04/27 01:03:22;;;;;;;3.62;1.40;;;;;;;6.96;43.93;97481.05;1598802;90;21602;-67
2021/04/27 01:05:50;;;;;;;5.70;1.82;;;;;;;6.86;49.48;97481.48;1636914;88;21832;-69
2021/04/27 01:12:03;;;;;;;3.05;1.45;;;;;;;6.76;48.25;97475.48;1758020;80;21280;-67
2021/04/27 01:14:38;;;;;;;2.83;1.20;;;;;;;6.68;47.58;97478.25;1758332;80;21682;-67
2021/04/27 01:17:12;;;;;;;3.20;2.00;;;;;;;6.66;47.16;97473.67;1743075;80;28730;-68
2021/04/27 01:20:12;;;;;;;3.35;1.35;;;;;;;6.79;46.00;97472.63;1756991;80;21284;-67
2021/04/27 01:23:42;;;;;;;2.30;1.22;;;;;;;6.72;44.95;97470.23;1689794;83;21587;-67
2021/04/27 01:28:57;;;;;;;3.10;1.27;;;;;;;6.66;47.07;97467.70;1810444;78;21164;-68
2021/04/27 01:31:27;;;;;;;3.22;1.37;;;;;;;6.64;45.86;97468.31;1810154;78;21153;-67
2021/04/27 01:33:58;;;;;;;2.50;1.20;;;;;;;6.64;46.33;97461.86;1809933;78;21574;-68
2021/04/27 01:36:27;;;;;;;6.03;1.50;;;;;;;6.60;46.96;97449.70;1809831;78;21164;-67
2021/04/27 01:38:56;;;;;;;3.52;1.75;;;;;;;6.56;47.98;97441.88;1810084;78;21157;-67
2021/04/27 01:41:26;;;;;;;1.50;1.20;;;;;;;6.52;47.57;97440.97;1810145;78;21618;-67
2021/04/27 01:43:56;;;;;;;3.22;1.50;;;;;;;6.48;49.60;97441.70;1810073;78;21143;-67
2021/04/27 01:46:24;;;;;;;3.22;1.60;;;;;;;6.45;48.02;97435.53;1809997;78;21200;-67
2021/04/27 01:48:56;;;;;;;3.08;1.75;;;;;;;6.44;48.34;97434.35;1814229;78;21602;-67
2021/04/27 01:51:26;;;;;;;2.90;1.62;;;;;;;6.43;46.37;97427.55;1810038;78;21577;-67
2021/04/27 01:54:15;;;;;;;2.22;1.20;;;;;;;6.42;46.65;97427.23;1808011;78;21185;-68
2021/04/27 01:56:44;;;;;;;1.80;1.30;;;;;;;6.39;47.39;97419.27;1814352;78;21158;-68
2021/04/27 01:59:12;;;;;;;2.42;1.37;;;;;;;6.37;46.44;97429.38;1810029;78;21216;-68
2021/04/27 02:01:41;;;;;;;2.72;1.42;;;;;;;6.34;47.74;97422.70;1810040;78;21141;-67
2021/04/27 02:04:47;;;;;;;5.80;1.70;;;;;;;6.33;49.38;97431.87;1681969;84;21198;-67
2021/04/27 02:07:22;;;;;;;1.70;1.05;;;;;;;6.29;48.12;97426.63;1701874;83;21599;-67
2021/04/27 02:09:51;;;;;;;2.50;1.22;;;;;;;6.27;47.39;97425.92;1689794;84;21135;-67
2021/04/27 02:12:21;;;;;;;4.17;1.82;;;;;;;6.26;47.12;97427.71;1709602;84;21186;-67
2021/04/27 02:14:49;;;;;;;3.98;1.20;;;;;;;6.24;48.04;97425.72;1710076;84;21151;-67
2021/04/27 02:17:28;;;;;;;2.02;1.10;;;;;;;6.23;49.12;97428.41;1710266;83;21163;-66
2021/04/27 02:19:58;;;;;;;2.12;1.22;;;;;;;6.21;48.86;97435.00;1690071;84;21595;-66
2021/04/27 02:22:45;;;;;;;3.02;1.22;;;;;;;6.19;48.43;97435.59;1710288;83;21163;-66
2021/04/27 02:25:17;;;;;;;2.92;1.35;;;;;;;6.16;48.43;97429.41;1707966;84;21632;-66
2021/04/27 02:27:46;;;;;;;2.20;1.05;;;;;;;6.15;48.06;97428.58;1710353;83;21234;-67
2021/04/27 02:30:19;;;;;;;1.20;1.05;;;;;;;6.15;47.48;97426.01;1710117;84;21171;-67
2021/04/27 02:32:48;;;;;;;2.35;1.00;;;;;;;6.12;48.11;97424.98;1710416;83;21563;-67
2021/04/27 02:35:18;;;;;;;4.90;1.40;;;;;;;6.11;48.08;97424.63;1710077;83;21187;-67
2021/04/27 02:37:50;;;;;;;2.92;1.10;;;;;;;6.10;48.44;97419.62;1710285;83;21217;-67
2021/04/27 02:40:27;;;;;;;2.98;0.90;;;;;;;6.06;48.90;97413.09;1708148;83;21163;-66
2021/04/27 02:42:59;;;;;;;1.83;1.00;;;;;;;6.03;48.65;97417.22;1710391;83;21163;-67
2021/04/27 02:45:41;;;;;;;3.42;1.50;;;;;;;5.97;51.33;97409.97;1710238;83;21568;-67
2021/04/27 02:48:16;;;;;;;1.87;1.40;;;;;;;5.87;50.86;97408.65;1707181;84;21171;-67
2021/04/27 02:50:51;;;;;;;2.90;1.60;;;;;;;5.81;51.87;97412.97;1690071;84;21167;-67
2021/04/27 02:53:20;;;;;;;3.62;1.85;;;;;;;5.75;51.02;97405.77;1710473;83;21183;-67
2021/04/27 02:55:50;;;;;;;3.27;1.82;;;;;;;5.71;50.69;97405.20;1710261;83;21202;-67
2021/04/27 02:58:19;;;;;;;3.50;1.57;;;;;;;5.69;50.82;97404.95;1710390;83;21188;-67
2021/04/27 03:00:50;;;;;;;3.60;1.55;;;;;;;5.65;50.92;97406.15;1709972;83;21167;-67
2021/04/27 03:03:18;;;;;;;2.65;1.57;;;;;;;5.62;50.55;97408.98;1710069;83;21608;-67
2021/04/27 03:05:47;;;;;;;6.20;1.70;;;;;;;5.59;50.47;97412.64;1710164;83;21158;-67
2021/04/27 03:08:15;;;;;;;4.75;1.65;;;;;;;5.55;50.63;97409.97;1710044;84;21159;-66
2021/04/27 03:10:43;;;;;;;3.77;1.37;;;;;;;5.51;50.74;97415.02;1710111;83;21592;-66
2021/04/27 03:13:11;;;;;;;3.40;1.65;;;;;;;5.47;51.37;97419.25;1710102;84;21150;-67
2021/04/27 03:15:41;;;;;;;4.90;1.50;;;;;;;5.43;49.59;97428.16;1708455;84;21190;-68
2021/04/27 03:18:10;;;;;;;2.00;1.30;;;;;;;5.40;49.80;97425.84;1689900;84;21155;-66
2021/04/27 03:20:41;;;;;;;2.55;1.22;;;;;;;5.36;48.08;97422.70;1710107;83;21171;-67
2021/04/27 03:23:12;;;;;;;4.72;1.55;;;;;;;5.34;49.21;97428.89;1708549;83;21223;-68
2021/04/27 03:25:41;;;;;;;2.15;1.15;;;;;;;5.30;51.24;97424.46;1710152;83;21162;-67
2021/04/27 03:28:11;;;;;;;6.03;1.90;;;;;;;5.29;47.83;97426.71;1710043;83;21147;-67
2021/04/27 03:30:47;;;;;;;1.57;1.02;;;;;;;5.27;50.26;97431.15;1709233;84;21158;-67
2021/04/27 03:33:17;;;;;;;1.65;1.50;;;;;;;5.25;49.97;97426.11;1690647;84;21230;-67
2021/04/27 03:35:47;;;;;;;7.92;1.42;;;;;;;5.23;50.34;97431.87;1709958;83;21127;-67
2021/04/27 03:38:15;;;;;;;2.20;1.10;;;;;;;5.23;49.10;97428.47;1710446;84;21188;-67
2021/04/27 03:40:45;;;;;;;3.55;1.30;;;;;;;5.21;49.84;97427.30;1710196;84;21195;-66
2021/04/27 03:43:17;;;;;;;4.10;1.77;;;;;;;5.20;50.53;97424.39;1710199;83;21553;-67
2021/04/27 03:45:45;;;;;;;2.35;1.35;;;;;;;5.18;49.16;97415.96;1710355;83;21190;-67
2021/04/27 03:48:20;;;;;;;8.80;1.67;;;;;;;5.17;50.56;97421.25;1710193;83;21143;-67
2021/04/27 03:50:51;;;;;;;2.60;1.35;;;;;;;5.15;52.49;97423.94;1709738;84;21170;-67
2021/04/27 03:53:34;;;;;;;2.65;1.57;;;;;;;5.11;52.10;97423.01;1710489;83;21159;-67
2021/04/27 03:56:25;;;;;;;2.47;1.62;;;;;;;5.13;52.28;97423.72;1710446;84;21131;-67
2021/04/27 03:58:53;;;;;;;1.98;1.42;;;;;;;5.12;51.49;97420.79;1661062;85;21189;-67
2021/04/27 04:01:22;;;;;;;2.60;1.10;;;;;;;5.09;52.13;97421.86;1682563;85;21172;-67
2021/04/27 04:03:50;;;;;;;4.37;1.27;;;;;;;5.11;52.89;97416.58;1682347;85;21188;-67
2021/04/27 04:06:18;;;;;;;3.15;1.32;;;;;;;5.09;53.59;97428.30;1682884;85;21176;-67
2021/04/27 04:08:54;;;;;;;3.60;1.45;;;;;;;5.11;53.38;97427.69;1745868;82;21187;-67
2021/04/27 04:11:25;;;;;;;2.72;1.50;;;;;;;5.14;52.48;97436.91;1745920;82;21199;-67
2021/04/27 04:13:53;;;;;;;5.67;2.17;;;;;;;5.15;50.74;97432.94;1745720;82;21136;-67
2021/04/27 04:16:22;;;;;;;11.25;1.87;;;;;;;5.18;51.61;97425.44;1745990;82;21237;-67
2021/04/27 04:18:50;;;;;;;5.08;1.95;;;;;;;5.20;51.44;97428.25;1745959;82;21597;-68
2021/04/27 04:21:20;;;;;;;1.67;0.93;;;;;;;5.24;50.06;97428.36;1732220;82;21164;-67
2021/04/27 04:23:55;;;;;;;2.65;1.17;;;;;;;5.25;50.26;97418.39;1708108;83;21173;-67
2021/04/27 04:26:24;;;;;;;2.45;1.50;;;;;;;5.29;49.91;97420.73;1719593;83;21161;-66
2021/04/27 04:29:11;;;;;;;2.02;1.20;;;;;;;5.32;49.57;97414.05;1719403;83;21349;-68
2021/04/27 04:31:41;;;;;;;4.03;1.87;;;;;;;5.34;48.22;97415.55;1719571;83;21156;-64
2021/04/27 04:34:28;;;;;;;2.02;1.55;;;;;;;5.36;49.83;97422.70;1719583;83;21168;-63
2021/04/27 04:37:14;;;;;;;2.75;1.32;;;;;;;5.40;50.02;97417.65;1719743;83;21207;-65
2021/04/27 04:40:00;;;;;;;2.02;1.30;;;;;;;5.43;53.09;97416.11;1719582;83;21192;-63
2021/04/27 04:42:41;;;;;;;2.75;1.00;;;;;;;5.51;51.42;97421.92;1655228;86;21202;-64
2021/04/27 04:45:32;;;;;;;3.22;1.30;;;;;;;5.62;52.80;97428.30;1683694;80;21188;-66
2021/04/27 04:48:19;;;;;;;2.02;1.22;;;;;;;5.71;51.98;97422.41;1739542;81;21150;-66
2021/04/27 04:51:05;;;;;;;4.58;1.65;;;;;;;5.80;50.14;97419.56;1738539;78;21224;-67
2021/04/27 04:53:41;;;;;;;2.00;1.12;;;;;;;5.93;49.69;97421.02;1706415;84;21164;-64
2021/04/27 04:56:09;;;;;;;2.25;1.35;;;;;;;6.06;47.79;97424.22;1737315;82;21166;-65
2021/04/27 04:58:39;;;;;;;3.05;1.07;;;;;;;6.18;50.02;97433.51;1736890;81;21216;-64
2021/04/27 05:01:09;;;;;;;7.78;1.27;;;;;;;6.31;46.40;97431.16;1737049;81;21248;-66
2021/04/27 05:03:42;;;;;;;1.90;1.07;;;;;;;6.46;48.94;97429.90;1737128;82;21238;-66
2021/04/27 05:06:38;;;;;;;2.35;1.30;;;;;;;6.47;48.46;97418.61;1715061;82;21142;-66
2021/04/27 05:09:23;;;;;;;2.20;1.20;;;;;;;6.68;48.20;97430.52;1716210;83;21222;-65
2021/04/27 05:11:51;;;;;;;1.90;1.00;;;;;;;6.80;47.55;97433.80;1737361;81;21154;-66
2021/04/27 05:14:34;;;;;;;2.37;1.30;;;;;;;6.90;47.21;97434.63;1760352;80;21648;-67
2021/04/27 05:17:05;;;;;;;2.65;1.40;;;;;;;6.97;46.37;97436.20;1761140;79;21195;-65
2021/04/27 05:19:35;;;;;;;3.08;1.17;;;;;;;6.99;45.62;97433.84;1760914;81;21147;-66
2021/04/27 05:22:09;;;;;;;5.10;1.42;;;;;;;7.05;46.23;97435.88;1761041;81;21339;-66
2021/04/27 05:24:39;;;;;;;2.33;0.93;;;;;;;7.19;45.66;97442.91;1761031;80;21634;-65
2021/04/27 05:27:14;;;;;;;2.77;1.37;;;;;;;7.34;45.31;97434.63;1760969;81;21150;-65
2021/04/27 05:29:42;;;;;;;2.75;1.45;;;;;;;7.49;44.95;97437.63;1760905;80;21151;-65
2021/04/27 05:32:10;;;;;;;2.65;1.70;;;;;;;7.62;44.00;97440.75;1737694;80;21152;-66
2021/04/27 05:34:38;;;;;;;4.90;1.92;;;;;;;7.63;43.29;97435.91;1760932;81;21131;-66
2021/04/27 05:37:05;;;;;;;5.25;1.52;;;;;;;7.77;42.78;97438.09;1761081;81;21325;-66
2021/04/27 05:39:33;;;;;;;2.22;1.67;;;;;;;7.90;42.96;97436.48;1761141;80;21592;-68
2021/04/27 05:42:02;;;;;;;1.67;1.27;;;;;;;8.05;42.02;97437.20;1761257;80;21226;-65
2021/04/27 05:44:31;;;;;;;2.72;1.40;;;;;;;8.23;41.68;97431.31;1760950;80;21220;-65
2021/04/27 05:47:00;;;;;;;1.90;0.93;;;;;;;8.28;41.54;97435.13;1767681;79;21558;-65
2021/04/27 05:49:28;;;;;;;3.80;1.07;;;;;;;8.46;41.89;97436.52;1812369;78;21130;-65
2021/04/27 05:51:56;;;;;;;2.55;1.20;;;;;;;8.63;41.31;97433.18;1815123;79;21170;-68
2021/04/27 05:54:25;;;;;;;4.25;1.87;;;;;;;8.78;41.09;97428.33;1768516;79;21190;-65
2021/04/27 05:56:59;;;;;;;2.98;1.90;;;;;;;8.86;40.32;97425.36;1784781;79;21151;-65
2021/04/27 05:59:28;;;;;;;2.87;1.25;;;;;;;9.05;40.92;97422.66;1792449;79;21763;-65
2021/04/27 06:01:55;;;;;;;1.40;1.10;;;;;;;9.15;40.01;97415.28;1793722;79;21179;-65
2021/04/27 06:04:23;;;;;;;3.92;1.50;;;;;;;9.32;39.70;97414.01;1788573;79;21297;-65
2021/04/27 06:06:51;;;;;;;5.33;1.12;;;;;;;9.52;39.01;97414.67;1786261;80;21123;-65
2021/04/27 06:09:19;;;;;;;2.33;1.20;;;;;;;9.69;38.69;97422.89;1787081;80;21251;-65
2021/04/27 06:11:47;;;;;;;2.80;1.20;;;;;;;9.68;38.19;97422.59;1785434;80;21605;-67
2021/04/27 06:14:15;;;;;;;3.22;1.60;;;;;;;9.85;38.69;97420.44;1779996;80;21156;-66
2021/04/27 06:16:43;;;;;;;4.33;2.33;;;;;;;10.01;38.51;97417.14;1779925;80;21334;-65
2021/04/27 06:19:12;;;;;;;8.48;3.55;;;;;;;10.06;38.25;97421.88;1780206;80;21329;-65
2021/04/27 06:21:41;;;;;;;3.35;1.60;;;;;;;10.10;37.65;97422.72;1781051;80;21121;-66
2021/04/27 06:24:12;;;;;;;7.65;2.47;;;;;;;9.98;37.31;97414.38;1760671;80;21111;-70
2021/04/27 06:26:43;;;;;;;5.92;2.45;;;;;;;9.92;36.73;97416.27;1735834;82;21745;-66
2021/04/27 06:29:12;;;;;;;3.55;2.20;;;;;;;10.11;36.45;97417.87;1744600;81;21665;-66
2021/04/27 06:31:41;;;;;;;4.85;1.47;;;;;;;10.14;36.48;97412.84;1737793;82;21165;-66
2021/04/27 06:34:10;;;;;;;3.42;1.82;;;;;;;10.42;36.01;97415.16;1740889;81;21633;-66
2021/04/27 06:36:39;;;;;;;4.12;2.10;;;;;;;10.54;35.37;97426.56;1741230;82;21135;-66
2021/04/27 06:39:09;;;;;;;5.45;1.75;;;;;;;10.70;35.31;97431.32;1742725;81;21160;-68
2021/04/27 06:41:38;;;;;;;6.25;1.62;;;;;;;10.90;35.67;97430.11;1725795;81;21208;-66
2021/04/27 06:44:09;;;;;;;10.23;1.87;;;;;;;10.91;36.23;97433.52;1726855;81;21144;-67
2021/04/27 06:46:38;;;;;;;4.50;1.90;;;;;;;11.07;36.86;97438.77;1694136;84;21169;-66
2021/04/27 06:49:07;;;;;;;4.03;2.08;;;;;;;11.01;37.35;97437.30;1680817;84;21239;-66
2021/04/27 06:51:36;;;;;;;4.12;2.17;;;;;;;10.70;37.93;97431.83;1694238;84;21171;-67
2021/04/27 06:54:06;;;;;;;4.15;1.50;;;;;;;10.31;38.64;97434.86;1651441;84;21608;-68
2021/04/27 06:56:35;;;;;;;3.37;1.35;;;;;;;10.67;36.18;97438.61;1682208;84;21196;-67
2021/04/27 06:59:06;;;;;;;2.83;1.30;;;;;;;10.98;35.96;97432.39;1714283;83;21229;-68
2021/04/27 07:01:35;;;;;;;5.15;1.52;;;;;;;11.10;35.66;97438.45;1740030;81;21169;-70
2021/04/27 07:04:04;;;;;;;3.42;2.02;;;;;;;11.15;36.70;97431.00;1737093;82;21562;-67
2021/04/27 07:06:32;;;;;;;5.12;1.82;;;;;;;10.82;35.15;97435.75;1740569;82;21216;-68
2021/04/27 07:09:03;;;;;;;1.77;1.30;;;;;;;10.85;34.50;97434.16;1736826;82;21224;-67
2021/04/27 07:11:33;;;;;;;2.33;1.15;;;;;;;10.99;34.84;97437.45;1740754;82;21219;-67
2021/04/27 07:14:07;;;;;;;2.35;1.45;;;;;;;11.13;35.00;97439.91;1740530;82;21178;-66
2021/04/27 07:16:35;;;;;;;2.02;1.02;;;;;;;10.65;35.30;97443.16;1740591;82;21208;-65
2021/04/27 07:19:05;;;;;;;1.70;1.20;;;;;;;11.05;36.01;97445.11;1736887;82;21717;-66
2021/04/27 07:21:34;;;;;;;3.08;1.12;;;;;;;11.22;35.24;97450.17;1739267;82;21156;-65
2021/04/27 07:24:04;;;;;;;1.62;1.00;;;;;;;11.46;34.70;97458.52;1734970;83;21157;-65
2021/04/27 07:26:32;;;;;;;1.80;0.82;;;;;;;11.73;34.45;97454.34;1737343;81;21782;-66
2021/04/27 07:29:14;;;;;;;2.45;1.00;;;;;;;11.94;31.65;97459.55;1776837;80;21150;-66
2021/04/27 07:31:43;;;;;;;1.30;0.90;;;;;;;11.84;29.41;97459.70;1776666;80;21147;-66
2021/04/27 07:34:11;;;;;;;2.33;1.20;;;;;;;11.89;31.95;97462.16;1776367;81;21170;-65
2021/04/27 07:36:39;;;;;;;4.50;1.98;;;;;;;12.02;31.56;97459.07;1776656;81;21206;-66
2021/04/27 07:39:10;;;;;;;2.37;1.20;;;;;;;11.94;29.93;97453.87;1776514;81;21158;-65
2021/04/27 07:41:39;;;;;;;2.25;0.82;;;;;;;11.95;30.30;97460.67;1776625;81;21123;-65
2021/04/27 07:44:08;;;;;;;1.50;1.30;;;;;;;12.03;29.84;97456.77;1776410;80;21151;-65
2021/04/27 07:46:37;;;;;;;1.42;0.93;;;;;;;12.07;30.63;97451.56;1776620;80;21171;-65
2021/04/27 07:49:06;;;;;;;3.08;1.27;;;;;;;12.07;29.58;97448.14;1776704;80;21595;-70
2021/04/27 07:51:36;;;;;;;4.15;1.10;;;;;;;12.18;30.00;97450.41;1776663;81;21148;-66
2021/04/27 07:54:05;;;;;;;2.95;1.22;;;;;;;12.33;30.01;97450.86;1776932;80;21378;-66
2021/04/27 07:56:34;;;;;;;5.60;1.52;;;;;;;12.37;29.34;97450.08;1776699;81;21148;-66
2021/04/27 07:59:24;;;;;;;2.95;0.90;;;;;;;12.05;29.12;97454.83;1776497;80;21127;-66
2021/04/27 08:01:53;;;;;;;6.72;1.60;;;;;;;12.07;29.24;97459.38;1662795;86;21630;-66
2021/04/27 08:04:21;;;;;;;2.85;1.22;;;;;;;11.79;30.01;97456.77;1662877;85;21650;-66
2021/04/27 08:06:50;;;;;;;5.05;2.05;;;;;;;11.98;29.57;97456.47;1662991;85;21169;-66
2021/04/27 08:09:18;;;;;;;2.33;1.40;;;;;;;11.94;29.93;97458.25;1662949;85;21170;-65
2021/04/27 08:11:46;;;;;;;4.45;1.82;;;;;;;12.05;29.84;97465.73;1662900;86;21177;-66
2021/04/27 08:14:15;;;;;;;4.62;1.75;;;;;;;11.84;30.79;97459.22;1662874;86;21599;-66
2021/04/27 08:16:43;;;;;;;4.03;1.50;;;;;;;11.76;31.02;97455.80;1663005;86;21214;-66
2021/04/27 08:19:12;;;;;;;3.52;1.52;;;;;;;11.98;31.11;97458.25;1662720;85;21604;-65
2021/04/27 08:21:41;;;;;;;3.60;2.02;;;;;;;12.40;29.95;97454.13;1635853;88;21214;-67
2021/04/27 08:24:10;;;;;;;73.87;31.73;;;;;;;12.16;30.02;97452.38;1636017;88;21186;-66
2021/04/27 08:26:40;;;;;;;13.80;7.80;;;;;;;12.71;30.63;97448.02;1638899;86;21209;-63
2021/04/27 08:29:08;;;;;;;5.58;2.37;;;;;;;13.01;29.47;97441.69;1635175;88;21214;-65
2021/04/27 08:31:38;;;;;;;3.10;1.95;;;;;;;12.82;29.32;97450.25;1636237;86;21194;-65
2021/04/27 08:34:07;;;;;;;4.25;1.85;;;;;;;12.56;29.62;97451.00;1636135;87;21189;-66
2021/04/27 08:36:36;;;;;;;3.83;1.60;;;;;;;13.02;28.78;97445.44;1635828;87;21194;-66
2021/04/27 08:39:06;;;;;;;1.98;1.25;;;;;;;12.98;28.92;97447.25;1635988;88;21642;-66
2021/04/27 08:41:37;;;;;;;1.80;1.12;;;;;;;13.22;28.73;97448.47;1636034;86;21210;-65
2021/04/27 08:44:06;;;;;;;2.75;1.20;;;;;;;13.50;28.69;97446.19;1636099;86;21234;-66
2021/04/27 08:46:36;;;;;;;1.52;0.85;;;;;;;13.86;27.50;97442.47;1635713;87;21270;-66
2021/04/27 08:49:05;;;;;;;1.47;1.10;;;;;;;13.57;26.92;97443.20;1635606;86;21175;-67
2021/04/27 08:51:33;;;;;;;2.15;0.98;;;;;;;14.12;26.88;97446.83;1635763;87;21584;-66
2021/04/27 08:54:07;;;;;;;3.05;1.12;;;;;;;14.55;26.91;97441.38;1640568;86;21667;-65
2021/04/27 08:56:35;;;;;;;3.50;1.05;;;;;;;14.91;25.89;97444.84;1640277;86;21624;-66
2021/04/27 08:59:05;;;;;;;2.98;0.93;;;;;;;15.09;25.05;97441.86;1640418;87;21203;-66
2021/04/27 09:01:36;;;;;;;6.03;1.35;;;;;;;15.26;26.06;97439.33;1655615;85;21200;-66
2021/04/27 09:04:04;;;;;;;4.20;0.90;;;;;;;15.30;24.38;97435.34;1635781;88;21191;-67
2021/04/27 09:06:33;;;;;;;2.45;0.93;;;;;;;15.59;25.83;97428.75;1635336;88;21183;-67
2021/04/27 09:09:03;;;;;;;3.35;1.40;;;;;;;15.81;23.47;97433.96;1641844;86;21573;-66
2021/04/27 09:11:42;;;;;;;1.65;1.17;;;;;;;15.66;23.38;97430.92;1630423;88;21636;-66
2021/04/27 09:14:20;;;;;;;1.52;0.98;;;;;;;15.86;24.20;97432.41;1635331;87;21588;-66
2021/04/27 09:16:54;;;;;;;3.37;0.82;;;;;;;16.16;23.29;97433.05;1658566;86;21578;-64
2021/04/27 09:19:35;;;;;;;2.20;1.77;;;;;;;16.31;21.99;97424.59;1630425;87;21603;-66
2021/04/27 09:22:23;;;;;;;2.50;1.07;;;;;;;15.61;21.63;97421.51;1635421;87;21218;-67
2021/04/27 09:25:00;;;;;;;1.37;0.90;;;;;;;15.46;21.66;97420.73;1635130;87;21167;-66
2021/04/27 09:27:38;;;;;;;1.80;1.32;;;;;;;16.12;23.04;97423.95;1658598;86;21185;-66
2021/04/27 09:30:27;;;;;;;2.40;0.93;;;;;;;16.20;21.92;97423.80;1630287;88;21176;-66
2021/04/27 09:33:00;;;;;;;0.95;0.75;;;;;;;16.37;21.62;97412.54;1658479;85;21207;-67
2021/04/27 09:35:42;;;;;;;1.12;0.93;;;;;;;16.75;21.41;97409.85;1630636;88;21167;-66
2021/04/27 09:38:21;;;;;;;1.12;0.70;;;;;;;16.98;20.98;97409.05;1635604;87;21798;-66
2021/04/27 09:41:00;;;;;;;1.75;0.88;;;;;;;17.51;21.23;97405.23;1635351;87;21774;-66
2021/04/27 09:43:33;;;;;;;1.72;0.93;;;;;;;17.93;19.93;97408.86;1658437;86;21189;-66
2021/04/27 09:46:07;;;;;;;5.72;1.40;;;;;;;18.25;21.34;97405.07;1630339;88;21201;-66
2021/04/27 09:48:43;;;;;;;2.37;1.00;;;;;;;17.81;19.41;97403.91;1634955;87;21190;-67
2021/04/27 09:51:19;;;;;;;1.47;0.70;;;;;;;18.43;19.09;97398.19;1638085;86;21174;-66
2021/04/27 09:53:57;;;;;;;3.25;0.90;;;;;;;18.98;21.75;97396.02;1637586;86;21182;-66
2021/04/27 09:57:01;;;;;;;2.27;1.20;;;;;;;19.46;19.03;97402.16;1635282;86;21151;-66
2021/04/27 09:59:42;;;;;;;1.55;0.88;;;;;;;19.61;17.59;97394.25;1695478;83;21253;-67
2021/04/27 10:02:08;;;;;;;1.75;1.15;;;;;;;19.04;17.61;97393.05;1703728;83;21552;-67
2021/04/27 10:04:40;;;;;;;1.45;0.90;;;;;;;18.69;17.86;97393.89;1724366;83;21134;-64
2021/04/27 10:07:07;;;;;;;2.62;1.47;;;;;;;18.78;18.23;97385.58;1724052;82;21150;-66
2021/04/27 10:09:36;;;;;;;1.32;0.98;;;;;;;17.72;19.18;97391.16;1723692;83;21147;-66
2021/04/27 10:12:07;;;;;;;2.67;1.10;;;;;;;18.64;18.88;97387.94;1723503;83;21291;-67
2021/04/27 10:14:36;;;;;;;1.40;1.07;;;;;;;18.24;18.77;97387.20;1723498;82;21170;-65
2021/04/27 10:17:04;;;;;;;2.08;1.02;;;;;;;18.59;18.38;97384.33;1723610;83;21208;-66
2021/04/27 10:19:34;;;;;;;1.57;0.82;;;;;;;18.76;18.31;97377.06;1723830;83;21154;-67
2021/04/27 10:22:02;;;;;;;4.08;1.12;;;;;;;19.45;18.36;97368.97;1723692;83;21226;-67
2021/04/27 10:24:30;;;;;;;1.98;1.10;;;;;;;18.78;18.23;97365.04;1723534;82;21544;-69
2021/04/27 10:26:58;;;;;;;1.42;1.00;;;;;;;19.47;19.33;97364.28;1705509;83;21166;-67
2021/04/27 10:29:27;;;;;;;1.72;1.20;;;;;;;19.66;17.81;97364.64;1723748;83;21582;-67
2021/04/27 10:32:22;;;;;;;1.95;1.02;;;;;;;19.24;17.76;97360.85;1723717;83;21127;-67
2021/04/27 10:35:02;;;;;;;2.10;0.85;;;;;;;17.95;19.33;97352.97;1723639;83;21162;-67
2021/04/27 10:38:12;;;;;;;2.27;1.20;;;;;;;17.34;19.98;97359.39;1723711;82;21210;-68
2021/04/27 10:43:45;;;;;;;1.85;1.00;;;;;;;17.50;19.95;97351.14;1760244;80;21141;-68
2021/04/27 10:46:24;;;;;;;4.22;1.80;;;;;;;17.98;19.78;97352.56;1731792;80;21607;-69
2021/04/27 10:48:56;;;;;;;2.75;1.62;;;;;;;18.39;19.74;97345.72;1761147;80;21261;-67
2021/04/27 10:51:29;;;;;;;3.87;2.20;;;;;;;18.67;19.16;97345.46;1757473;80;21186;-68
2021/04/27 10:54:13;;;;;;;3.27;1.90;;;;;;;19.63;19.29;97347.45;1760741;80;21198;-68
2021/04/27 10:57:08;;;;;;;1.67;0.85;;;;;;;20.04;17.92;97347.42;1760020;80;21154;-69
2021/04/27 10:59:56;;;;;;;2.58;1.20;;;;;;;21.00;19.16;97333.86;1761090;80;21163;-67
2021/04/27 11:02:28;;;;;;;2.77;1.27;;;;;;;21.45;18.37;97342.69;1761147;80;21598;-68
2021/04/27 11:05:11;;;;;;;2.27;1.02;;;;;;;21.22;16.90;97341.60;1761275;80;21551;-67
2021/04/27 11:07:39;;;;;;;4.92;1.42;;;;;;;21.22;16.46;97342.92;1758845;80;21154;-67
2021/04/27 11:10:39;;;;;;;4.78;1.47;;;;;;;21.52;18.34;97335.46;1761189;80;21547;-67
2021/04/27 11:13:08;;;;;;;2.02;1.12;;;;;;;20.92;17.70;97331.53;1785739;80;21615;-67
2021/04/27 11:15:45;;;;;;;2.12;1.10;;;;;;;20.10;18.12;97329.41;1787585;79;21151;-67
2021/04/27 11:18:20;;;;;;;4.55;1.65;;;;;;;21.24;17.41;97330.28;1787127;80;21116;-67
2021/04/27 11:20:55;;;;;;;2.10;1.30;;;;;;;21.45;17.02;97327.65;1787406;79;21144;-67
2021/04/27 11:23:52;;;;;;;2.35;1.20;;;;;;;21.04;17.22;97332.39;1787993;80;21201;-67
2021/04/27 11:26:38;;;;;;;2.85;1.55;;;;;;;21.02;17.05;97327.02;1787696;79;21147;-66
2021/04/27 11:29:21;;;;;;;1.92;1.10;;;;;;;19.25;18.87;97334.33;1787916;80;21584;-67
2021/04/27 11:32:07;;;;;;;2.70;1.52;;;;;;;19.62;18.63;97335.30;1787815;80;21545;-67
2021/04/27 11:35:15;;;;;;;3.15;1.30;;;;;;;19.29;19.39;97333.39;1787974;80;21652;-70
2021/04/27 11:37:57;;;;;;;5.60;1.72;;;;;;;18.64;19.84;97328.77;1787623;80;21192;-67
2021/04/27 11:40:51;;;;;;;1.98;1.27;;;;;;;18.36;20.13;97325.11;1787518;80;21143;-67
2021/04/27 11:43:20;;;;;;;2.40;1.27;;;;;;;18.42;19.97;97326.90;1706613;83;21657;-67
2021/04/27 11:45:51;;;;;;;3.40;2.17;;;;;;;19.06;19.24;97320.78;1706027;84;21186;-71
2021/04/27 11:48:22;;;;;;;3.77;1.57;;;;;;;18.43;20.17;97315.88;1706185;84;21686;-66
2021/04/27 11:50:51;;;;;;;2.62;1.20;;;;;;;17.85;20.69;97316.32;1705948;84;21218;-67
2021/04/27 11:53:21;;;;;;;3.33;1.57;;;;;;;17.57;21.19;97321.78;1705955;84;21196;-67
2021/04/27 11:55:56;;;;;;;6.40;1.32;;;;;;;18.20;20.44;97321.62;1705906;84;21174;-66
2021/04/27 11:58:33;;;;;;;2.47;1.77;;;;;;;17.74;20.63;97309.84;1706223;84;21264;-67
2021/04/27 12:01:06;;;;;;;3.72;1.47;;;;;;;17.82;20.70;97311.48;1700903;84;21180;-66
2021/04/27 12:03:41;;;;;;;4.97;1.30;;;;;;;18.14;20.36;97313.22;1697855;84;21177;-66
2021/04/27 12:06:14;;;;;;;3.72;1.20;;;;;;;17.80;21.03;97312.17;1735370;83;21141;-66
2021/04/27 12:08:51;;;;;;;1.95;1.10;;;;;;;18.72;19.90;97304.85;1735777;83;21617;-66
2021/04/27 12:11:54;;;;;;;1.70;1.00;;;;;;;19.71;18.78;97302.91;1735729;82;21596;-66
2021/04/27 12:14:23;;;;;;;3.98;1.00;;;;;;;20.43;18.20;97294.81;1725113;82;21173;-66